createdAt,value
2019-03-18T00:01:30.018Z,3.13
2019-03-18T00:03:59.111Z,2.17
2019-03-18T00:06:28.181Z,2.07
2019-03-18T00:08:57.254Z,3.00
2019-03-18T00:11:26.169Z,2.40
2019-03-18T00:13:55.022Z,3.47
2019-03-18T00:16:23.942Z,2.57
2019-03-18T00:18:52.854Z,1.97
2019-03-18T00:21:22.098Z,4.60
2019-03-18T00:23:51.014Z,2.00
2019-03-18T00:26:19.995Z,4.00
2019-03-18T00:28:48.834Z,2.43
2019-03-18T00:31:17.682Z,3.13
2019-03-18T00:33:46.582Z,2.97
2019-03-18T00:36:15.499Z,4.70
2019-03-18T00:38:44.418Z,2.17
2019-03-18T00:41:14.241Z,16.70
2019-03-18T00:43:43.083Z,2.80
2019-03-18T00:46:11.926Z,2.50
2019-03-18T00:48:40.867Z,1.50
2019-03-18T00:51:09.866Z,2.30
2019-03-18T00:53:38.874Z,3.13
2019-03-18T00:56:07.945Z,3.70
2019-03-18T00:58:37.496Z,2.87
2019-03-18T01:01:06.489Z,3.60
2019-03-18T01:03:35.413Z,5.27
2019-03-18T01:06:04.398Z,1.97
2019-03-18T01:08:33.243Z,2.23
2019-03-18T01:11:02.287Z,2.17
2019-03-18T01:13:31.555Z,2.90
2019-03-18T01:16:00.531Z,5.13
2019-03-18T01:18:29.859Z,5.43
2019-03-18T01:20:58.698Z,3.90
2019-03-18T01:23:27.564Z,1.87
2019-03-18T01:25:56.517Z,2.13
2019-03-18T01:28:25.354Z,1.93
2019-03-18T01:30:54.202Z,3.00
2019-03-18T01:33:23.205Z,2.30
2019-03-18T01:35:52.127Z,4.70
2019-03-18T01:38:20.969Z,3.20
2019-03-18T01:40:49.907Z,3.03
2019-03-18T01:43:18.750Z,2.20
2019-03-18T01:45:47.604Z,4.03
2019-03-18T01:48:16.614Z,8.93
2019-03-18T01:50:45.575Z,3.30
2019-03-18T01:53:14.509Z,3.80
2019-03-18T01:55:43.449Z,1.90
2019-03-18T01:58:12.295Z,2.40
2019-03-18T02:00:41.593Z,2.73
2019-03-18T02:03:10.443Z,5.13
2019-03-18T02:05:39.289Z,4.47
2019-03-18T02:08:08.592Z,6.23
2019-03-18T02:10:37.970Z,2.90
2019-03-18T02:13:06.813Z,17.93
2019-03-18T02:15:35.794Z,1.73
2019-03-18T02:18:05.154Z,5.43
2019-03-18T02:20:34.346Z,1.53
2019-03-18T02:23:03.339Z,5.50
2019-03-18T02:25:32.213Z,5.27
2019-03-18T02:28:01.189Z,5.53
2019-03-18T02:30:30.229Z,3.83
2019-03-18T02:32:59.276Z,4.63
2019-03-18T02:35:28.530Z,4.43
2019-03-18T02:37:57.443Z,1.73
2019-03-18T02:40:26.314Z,2.77
2019-03-18T02:42:55.234Z,4.00
2019-03-18T02:45:24.921Z,4.20
2019-03-18T02:47:53.957Z,5.43
2019-03-18T02:50:22.967Z,2.80
2019-03-18T02:52:51.917Z,3.93
2019-03-18T02:55:20.909Z,4.70
2019-03-18T02:57:49.765Z,2.17
2019-03-18T03:00:18.868Z,2.07
2019-03-18T03:02:47.782Z,3.73
2019-03-18T03:05:16.806Z,2.97
2019-03-18T03:07:45.720Z,3.20
2019-03-18T03:10:16.663Z,3.03
2019-03-18T03:12:45.570Z,3.77
2019-03-18T03:15:14.864Z,3.90
2019-03-18T03:17:44.666Z,2.00
2019-03-18T03:20:14.494Z,4.10
2019-03-18T03:22:43.504Z,1.67
2019-03-18T03:25:12.552Z,1.73
2019-03-18T03:27:41.550Z,1.70
2019-03-18T03:30:10.644Z,1.70
2019-03-18T03:32:39.677Z,3.67
2019-03-18T03:35:08.783Z,3.83
2019-03-18T03:37:37.734Z,2.00
2019-03-18T03:40:06.794Z,3.00
2019-03-18T03:42:35.776Z,2.07
2019-03-18T03:45:05.786Z,10.97
2019-03-18T03:47:34.847Z,2.17
2019-03-18T03:50:03.858Z,2.83
2019-03-18T03:52:32.849Z,3.93
2019-03-18T03:55:01.851Z,2.63
2019-03-18T03:57:30.769Z,2.43
2019-03-18T04:00:00.474Z,2.37
2019-03-18T04:02:29.589Z,2.30
2019-03-18T04:04:58.688Z,2.07
2019-03-18T04:07:27.679Z,2.50
2019-03-18T04:09:56.741Z,1.93
2019-03-18T04:12:25.732Z,6.50
2019-03-18T04:14:54.578Z,1.50
2019-03-18T04:17:23.511Z,2.40
2019-03-18T04:19:52.433Z,6.40
2019-03-18T04:22:21.507Z,2.60
2019-03-18T04:24:50.514Z,3.60
2019-03-18T04:27:19.425Z,13.83
2019-03-18T04:29:48.346Z,3.07
2019-03-18T04:32:17.610Z,2.67
2019-03-18T04:34:46.522Z,2.93
2019-03-18T04:37:15.439Z,4.03
2019-03-18T04:39:44.315Z,4.10
2019-03-18T04:42:13.479Z,3.57
2019-03-18T04:44:42.318Z,4.50
2019-03-18T04:47:14.440Z,5.30
2019-03-18T04:49:41.768Z,3.67
2019-03-18T04:52:10.882Z,7.20
2019-03-18T04:54:39.753Z,3.60
2019-03-18T04:57:08.738Z,3.30
2019-03-18T04:59:37.636Z,2.67
2019-03-18T05:02:06.598Z,3.00
2019-03-18T05:04:35.743Z,3.83
2019-03-18T05:07:04.737Z,5.50
2019-03-18T05:09:33.745Z,10.53
2019-03-18T05:12:02.673Z,2.13
2019-03-18T05:14:31.534Z,5.67
2019-03-18T05:17:00.509Z,4.20
2019-03-18T05:19:29.345Z,4.50
2019-03-18T05:21:58.195Z,2.00
2019-03-18T05:24:27.185Z,3.30
2019-03-18T05:26:56.470Z,3.03
2019-03-18T05:29:25.319Z,7.03
2019-03-18T05:31:54.177Z,3.30
2019-03-18T05:34:23.029Z,2.40
2019-03-18T05:36:52.030Z,5.53
2019-03-18T05:39:20.910Z,6.30
2019-03-18T05:41:49.759Z,2.10
2019-03-18T05:44:18.631Z,4.13
2019-03-18T05:46:48.026Z,4.97
2019-03-18T05:49:19.362Z,6.07
2019-03-18T05:51:48.495Z,2.63
2019-03-18T05:54:17.873Z,2.20
2019-03-18T05:56:46.726Z,4.10
2019-03-18T05:59:15.666Z,4.83
2019-03-18T06:01:44.602Z,3.93
2019-03-18T06:04:13.513Z,4.30
2019-03-18T06:06:42.430Z,3.93
2019-03-18T06:09:11.374Z,4.50
2019-03-18T06:11:40.222Z,4.03
2019-03-18T06:14:09.138Z,2.40
2019-03-18T06:16:38.341Z,3.10
2019-03-18T06:19:07.229Z,5.37
2019-03-18T06:21:36.213Z,5.60
2019-03-18T06:24:06.393Z,6.93
2019-03-18T06:26:35.881Z,5.27
2019-03-18T06:29:04.898Z,1.60
2019-03-18T06:31:34.168Z,7.20
2019-03-18T06:34:03.021Z,6.97
2019-03-18T06:36:31.888Z,2.93
2019-03-18T06:39:00.737Z,2.50
2019-03-18T06:41:29.971Z,5.90
2019-03-18T06:43:58.830Z,1.60
2019-03-18T06:46:27.684Z,4.30
2019-03-18T06:48:56.679Z,4.97
2019-03-18T06:51:25.611Z,8.23
2019-03-18T06:53:54.465Z,2.93
2019-03-18T06:56:23.381Z,5.67
2019-03-18T06:58:52.308Z,3.60
2019-03-18T07:01:21.253Z,1.87
2019-03-18T07:03:50.559Z,3.37
2019-03-18T07:06:19.478Z,3.93
2019-03-18T07:08:48.502Z,2.83
2019-03-18T07:11:17.491Z,5.00
2019-03-18T07:13:46.410Z,4.90
2019-03-18T07:16:15.421Z,10.77
2019-03-18T07:18:44.338Z,5.63
2019-03-18T07:21:14.858Z,5.83
2019-03-18T07:23:44.010Z,7.33
2019-03-18T07:26:12.989Z,3.93
2019-03-18T07:28:41.923Z,2.67
2019-03-18T07:31:10.939Z,3.30
2019-03-18T07:33:39.849Z,5.03
2019-03-18T07:36:08.839Z,5.40
2019-03-18T07:38:37.811Z,2.30
2019-03-18T07:41:06.658Z,4.20
2019-03-18T07:43:35.658Z,6.67
2019-03-18T07:46:04.661Z,2.60
2019-03-18T07:48:33.529Z,18.93
2019-03-18T07:51:02.381Z,11.77
2019-03-18T07:53:31.381Z,7.50
2019-03-18T07:56:00.310Z,15.93
2019-03-18T07:58:29.319Z,14.30
2019-03-18T08:00:58.484Z,18.67
2019-03-18T08:03:27.450Z,7.07
2019-03-18T08:05:56.366Z,8.60
2019-03-18T08:08:25.336Z,16.73
2019-03-18T08:10:54.318Z,20.47
2019-03-18T08:13:23.174Z,16.47
2019-03-18T08:15:52.116Z,13.20
2019-03-18T08:18:21.047Z,14.07
2019-03-18T08:20:49.971Z,12.83
2019-03-18T08:23:18.839Z,12.03
2019-03-18T08:25:47.678Z,14.23
2019-03-18T08:28:16.622Z,7.00
2019-03-18T08:30:45.467Z,8.30
2019-03-18T08:33:14.596Z,3.33
2019-03-18T08:35:43.511Z,3.67
2019-03-18T08:38:12.513Z,3.30
2019-03-18T08:40:41.425Z,3.20
2019-03-18T08:43:10.342Z,2.10
2019-03-18T08:45:39.554Z,2.53
2019-03-18T08:48:08.555Z,3.10
2019-03-18T08:50:37.477Z,4.00
2019-03-18T08:53:06.358Z,4.60
2019-03-18T08:55:35.626Z,4.53
2019-03-18T08:58:04.639Z,5.70
2019-03-18T09:00:33.659Z,6.40
2019-03-18T09:03:02.662Z,5.13
2019-03-18T09:05:31.605Z,2.40
2019-03-18T09:08:00.614Z,1.40
2019-03-18T09:10:29.615Z,3.20
2019-03-18T09:12:58.623Z,3.13
2019-03-18T09:15:27.567Z,1.50
2019-03-18T09:17:56.894Z,3.40
2019-03-18T09:20:25.726Z,3.40
2019-03-18T09:22:54.678Z,3.40
2019-03-18T09:25:23.669Z,4.50
2019-03-18T09:27:52.517Z,3.20
2019-03-18T09:30:21.639Z,4.03
2019-03-18T09:32:50.647Z,2.47
2019-03-18T09:35:19.637Z,1.87
2019-03-18T09:37:48.578Z,2.50
2019-03-18T09:40:17.814Z,2.93
2019-03-18T09:42:46.766Z,1.43
2019-03-18T09:45:15.791Z,1.67
2019-03-18T09:47:44.786Z,1.80
2019-03-18T09:50:14.182Z,2.63
2019-03-18T09:52:43.586Z,2.27
2019-03-18T09:55:12.570Z,3.40
2019-03-18T09:57:41.562Z,2.03
2019-03-18T10:00:12.298Z,4.40
2019-03-18T10:02:41.751Z,7.03
2019-03-18T10:05:11.009Z,1.50
2019-03-18T10:07:39.967Z,10.23
2019-03-18T10:10:09.095Z,6.07
2019-03-18T10:12:38.186Z,7.13
2019-03-18T10:15:08.874Z,4.40
2019-03-18T10:17:37.859Z,8.20
2019-03-18T10:20:07.113Z,3.53
2019-03-18T10:22:36.265Z,8.37
2019-03-18T10:25:06.000Z,20.20
2019-03-18T10:27:37.558Z,9.03
2019-03-18T10:30:05.767Z,2.90
2019-03-18T10:32:34.708Z,4.27
2019-03-18T10:35:03.986Z,3.50
2019-03-18T10:37:32.991Z,3.80
2019-03-18T10:40:01.914Z,4.17
2019-03-18T10:42:30.830Z,3.67
2019-03-18T10:44:59.946Z,2.37
2019-03-18T10:47:28.865Z,5.53
2019-03-18T10:49:57.996Z,2.33
2019-03-18T10:52:28.309Z,4.73
2019-03-18T10:54:57.284Z,3.77
2019-03-18T10:57:26.199Z,1.80
2019-03-18T10:59:55.138Z,4.50
2019-03-18T11:02:24.086Z,3.23
2019-03-18T11:04:53.275Z,3.37
2019-03-18T11:07:22.214Z,2.07
2019-03-18T11:09:51.466Z,2.37
2019-03-18T11:12:20.966Z,2.63
2019-03-18T11:14:50.166Z,3.83
2019-03-18T11:17:19.467Z,9.60
2019-03-18T11:19:57.876Z,4.23
2019-03-18T11:22:19.066Z,3.03
2019-03-18T11:24:47.946Z,3.23
2019-03-18T11:27:16.877Z,3.43
2019-03-18T11:29:45.806Z,4.50
2019-03-18T11:32:14.733Z,2.60
2019-03-18T11:34:43.746Z,2.90
2019-03-18T11:37:13.059Z,3.70
2019-03-18T11:39:41.995Z,4.63
2019-03-18T11:42:10.926Z,4.03
2019-03-18T11:44:39.868Z,2.67
2019-03-18T11:47:08.801Z,3.70
2019-03-18T11:49:39.802Z,4.60
2019-03-18T11:52:08.548Z,5.13
2019-03-18T11:54:37.554Z,2.93
2019-03-18T11:57:06.562Z,2.40
2019-03-18T11:59:35.654Z,2.40
2019-03-18T12:02:04.914Z,2.10
2019-03-18T12:04:33.857Z,3.40
2019-03-18T12:07:02.781Z,2.50
2019-03-18T12:09:31.721Z,2.17
2019-03-18T12:12:00.730Z,2.10
2019-03-18T12:14:29.980Z,2.40
2019-03-18T12:16:58.986Z,3.20
2019-03-18T12:19:27.905Z,2.23
2019-03-18T12:21:56.766Z,2.77
2019-03-18T12:24:25.693Z,2.60
2019-03-18T12:26:54.552Z,2.43
2019-03-18T12:29:23.418Z,3.30
2019-03-18T12:31:52.357Z,1.70
2019-03-18T12:34:21.215Z,3.43
2019-03-18T12:36:50.078Z,2.23
2019-03-18T12:39:18.927Z,2.30
2019-03-18T12:41:47.860Z,2.77
2019-03-18T12:44:16.804Z,4.30
2019-03-18T12:46:45.731Z,5.57
2019-03-18T12:49:14.598Z,7.03
2019-03-18T12:51:43.605Z,5.60
2019-03-18T12:54:12.525Z,2.57
2019-03-18T12:56:41.370Z,3.03
2019-03-18T12:59:10.404Z,2.93
2019-03-18T13:01:39.403Z,3.63
2019-03-18T13:04:08.398Z,2.60
2019-03-18T13:06:37.359Z,3.90
2019-03-18T13:09:08.696Z,1.70
2019-03-18T13:11:37.705Z,3.47
2019-03-18T13:14:06.741Z,2.70
2019-03-18T13:16:35.741Z,3.10
2019-03-18T13:19:04.751Z,1.43
2019-03-18T13:21:33.630Z,10.03
2019-03-18T13:24:02.542Z,1.77
2019-03-18T13:26:31.477Z,2.70
2019-03-18T13:29:00.484Z,2.10
2019-03-18T13:31:29.421Z,2.47
2019-03-18T13:33:58.337Z,1.90
2019-03-18T13:36:27.280Z,1.70
2019-03-18T13:38:56.276Z,2.00
2019-03-18T13:41:25.122Z,1.40
2019-03-18T13:43:54.321Z,1.70
2019-03-18T13:46:23.242Z,2.30
2019-03-18T13:48:52.238Z,2.90
2019-03-18T13:51:21.458Z,2.43
2019-03-18T13:53:50.380Z,1.60
2019-03-18T13:56:19.307Z,2.00
2019-03-18T13:58:48.183Z,3.70
2019-03-18T14:01:17.200Z,2.30
2019-03-18T14:03:46.124Z,1.70
2019-03-18T14:06:15.072Z,3.13
2019-03-18T14:08:43.909Z,3.47
2019-03-18T14:11:12.842Z,2.03
2019-03-18T14:13:41.863Z,4.57
2019-03-18T14:16:10.718Z,3.40
2019-03-18T14:18:39.554Z,3.80
2019-03-18T14:21:08.488Z,4.07
2019-03-18T14:23:37.714Z,8.90
2019-03-18T14:26:06.730Z,4.00
2019-03-18T14:28:35.685Z,3.90
2019-03-18T14:31:04.678Z,7.87
2019-03-18T14:33:33.674Z,3.63
2019-03-18T14:36:02.618Z,5.90
2019-03-18T14:38:31.538Z,3.57
2019-03-18T14:41:00.805Z,2.50
2019-03-18T14:43:29.676Z,2.70
2019-03-18T14:45:58.595Z,3.10
2019-03-18T14:48:27.520Z,5.27
2019-03-18T14:50:56.466Z,3.70
2019-03-18T14:53:25.395Z,2.80
2019-03-18T14:55:54.322Z,3.83
2019-03-18T14:58:23.178Z,3.17
2019-03-18T15:00:52.107Z,1.57
2019-03-18T15:03:21.043Z,2.00
2019-03-18T15:05:50.004Z,3.83
2019-03-18T15:08:18.938Z,2.67
2019-03-18T15:10:47.893Z,2.93
2019-03-18T15:13:16.901Z,1.40
2019-03-18T15:15:47.037Z,2.07
2019-03-18T15:18:15.946Z,3.20
2019-03-18T15:20:45.566Z,2.47
2019-03-18T15:23:14.589Z,2.07
2019-03-18T15:25:43.839Z,2.80
2019-03-18T15:28:12.790Z,2.80
2019-03-18T15:30:42.526Z,9.77
2019-03-18T15:33:11.650Z,1.97
2019-03-18T15:35:40.658Z,2.87
2019-03-18T15:38:09.754Z,3.53
2019-03-18T15:40:39.550Z,5.00
2019-03-18T15:43:08.576Z,4.17
2019-03-18T15:45:37.418Z,3.23
2019-03-18T15:48:06.492Z,7.03
2019-03-18T15:50:35.491Z,1.90
2019-03-18T15:53:04.497Z,2.87
2019-03-18T15:55:33.412Z,4.53
2019-03-18T15:58:02.378Z,4.47
2019-03-18T16:00:31.366Z,2.37
2019-03-18T16:03:00.373Z,6.50
2019-03-18T16:05:29.376Z,2.47
2019-03-18T16:07:58.445Z,2.77
2019-03-18T16:10:27.510Z,2.30
2019-03-18T16:12:57.175Z,2.70
2019-03-18T16:15:26.242Z,2.23
2019-03-18T16:17:55.545Z,5.00
2019-03-18T16:20:24.582Z,4.20
2019-03-18T16:22:53.578Z,6.33
2019-03-18T16:25:22.823Z,2.90
2019-03-18T16:27:51.930Z,5.47
2019-03-18T16:30:20.928Z,2.50
2019-03-18T16:32:49.919Z,4.50
2019-03-18T16:35:19.206Z,4.87
2019-03-18T16:37:48.212Z,1.90
2019-03-18T16:40:17.204Z,3.10
2019-03-18T16:42:46.152Z,1.80
2019-03-18T16:45:15.262Z,4.13
2019-03-18T16:47:44.359Z,2.90
2019-03-18T16:50:14.562Z,5.83
2019-03-18T16:52:43.555Z,5.70
2019-03-18T16:55:12.950Z,6.03
2019-03-18T16:57:41.952Z,2.80
2019-03-18T17:00:13.585Z,3.90
2019-03-18T17:02:42.605Z,9.13
2019-03-18T17:05:11.783Z,8.10
2019-03-18T17:07:40.705Z,4.60
2019-03-18T17:10:10.269Z,2.87
2019-03-18T17:12:39.405Z,3.90
2019-03-18T17:15:08.977Z,7.33
2019-03-18T17:17:37.918Z,7.47
2019-03-18T17:20:08.097Z,8.20
2019-03-18T17:22:48.130Z,5.10
2019-03-18T17:25:09.776Z,13.13
2019-03-18T17:27:38.717Z,3.83
2019-03-18T17:30:10.932Z,1.83
2019-03-18T17:32:40.140Z,3.73
2019-03-18T17:35:09.499Z,1.63
2019-03-18T17:37:38.551Z,2.20
2019-03-18T17:40:07.658Z,5.53
2019-03-18T17:42:36.593Z,6.57
2019-03-18T17:45:05.804Z,3.33
2019-03-18T17:47:34.833Z,3.47
2019-03-18T17:50:04.354Z,2.20
2019-03-18T17:52:33.470Z,1.90
2019-03-18T17:55:02.315Z,3.53
2019-03-18T17:57:31.546Z,3.00
2019-03-18T18:00:01.590Z,1.87
2019-03-18T18:02:31.153Z,3.20
2019-03-18T18:05:03.207Z,2.30
2019-03-18T18:07:30.978Z,1.40
2019-03-18T18:10:00.343Z,2.03
2019-03-18T18:12:29.318Z,1.60
2019-03-18T18:14:59.130Z,3.27
2019-03-18T18:17:28.246Z,10.57
2019-03-18T18:19:57.122Z,11.50
2019-03-18T18:22:26.050Z,3.47
2019-03-18T18:24:55.038Z,8.27
2019-03-18T18:27:24.387Z,12.67
2019-03-18T18:29:53.230Z,8.53
2019-03-18T18:32:22.146Z,4.47
2019-03-18T18:34:51.015Z,4.87
2019-03-18T18:37:19.932Z,6.30
2019-03-18T18:39:48.852Z,2.37
2019-03-18T18:42:17.798Z,5.43
2019-03-18T18:44:47.007Z,3.10
2019-03-18T18:47:15.923Z,3.70
2019-03-18T18:49:44.927Z,5.20
2019-03-18T18:52:14.273Z,4.37
2019-03-18T18:54:43.120Z,9.10
2019-03-18T18:57:12.182Z,6.57
2019-03-18T18:59:41.031Z,6.63
2019-03-18T19:02:10.031Z,7.27
2019-03-18T19:04:39.278Z,3.40
2019-03-18T19:07:08.206Z,6.40
2019-03-18T19:09:37.466Z,9.93
2019-03-18T19:12:06.876Z,5.90
2019-03-18T19:14:35.962Z,2.80
2019-03-18T19:17:04.995Z,9.73
2019-03-18T19:19:34.258Z,4.63
2019-03-18T19:22:03.249Z,10.50
2019-03-18T19:24:32.086Z,6.03
2019-03-18T19:27:01.067Z,9.80
2019-03-18T19:29:29.991Z,12.10
2019-03-18T19:31:58.830Z,10.50
2019-03-18T19:34:27.911Z,9.37
2019-03-18T19:36:56.746Z,4.70
2019-03-18T19:39:25.626Z,5.73
2019-03-18T19:41:54.565Z,1.97
2019-03-18T19:44:23.406Z,12.30
2019-03-18T19:46:52.933Z,10.23
2019-03-18T19:49:21.944Z,6.80
2019-03-18T19:51:50.883Z,6.10
2019-03-18T19:54:19.874Z,4.17
2019-03-18T19:56:51.193Z,6.33
2019-03-18T19:59:22.689Z,9.97
2019-03-18T20:01:51.582Z,8.53
2019-03-18T20:04:20.527Z,4.60
2019-03-18T20:06:49.383Z,4.20
2019-03-18T20:09:18.385Z,4.17
2019-03-18T20:11:47.472Z,5.47
2019-03-18T20:14:17.824Z,6.80
2019-03-18T20:16:49.480Z,3.70
2019-03-18T20:19:18.482Z,5.33
2019-03-18T20:21:47.663Z,4.20
2019-03-18T20:24:17.020Z,3.77
2019-03-18T20:26:46.446Z,2.80
2019-03-18T20:29:15.827Z,6.30
2019-03-18T20:31:45.187Z,8.50
2019-03-18T20:34:16.213Z,10.90
2019-03-18T20:36:45.138Z,9.10
2019-03-18T20:39:14.126Z,6.50
2019-03-18T20:41:43.118Z,8.27
2019-03-18T20:44:12.379Z,17.60
2019-03-18T20:46:41.293Z,6.43
2019-03-18T20:49:10.483Z,8.80
2019-03-18T20:51:39.801Z,4.43
2019-03-18T20:54:12.349Z,2.73
2019-03-18T20:56:40.673Z,4.03
2019-03-18T20:59:10.993Z,4.70
2019-03-18T21:01:40.231Z,4.70
2019-03-18T21:04:09.564Z,5.07
2019-03-18T21:06:38.758Z,4.90
2019-03-18T21:09:08.384Z,2.80
2019-03-18T21:11:38.108Z,4.43
2019-03-18T21:14:07.272Z,11.07
2019-03-18T21:16:36.375Z,27.30
2019-03-18T21:19:05.457Z,33.30
2019-03-18T21:21:34.788Z,51.67
2019-03-18T21:24:04.487Z,20.77
2019-03-18T21:26:33.581Z,6.00
2019-03-18T21:29:02.687Z,46.83
2019-03-18T21:31:32.019Z,22.20
2019-03-18T21:34:01.129Z,33.23
2019-03-18T21:36:37.987Z,116.47
2019-03-18T21:39:01.242Z,48.63
2019-03-18T21:41:30.443Z,34.90
2019-03-18T21:43:59.285Z,8.10
2019-03-18T21:46:28.192Z,5.00
2019-03-18T21:48:57.467Z,14.03
2019-03-18T21:51:26.474Z,41.47
2019-03-18T21:53:55.313Z,50.83
2019-03-18T21:56:24.314Z,28.23
2019-03-18T21:58:53.164Z,14.40
2019-03-18T22:01:22.173Z,28.27
2019-03-18T22:03:51.074Z,27.97
2019-03-18T22:06:19.918Z,19.63
2019-03-18T22:08:48.949Z,13.67
2019-03-18T22:11:17.824Z,8.30
2019-03-18T22:13:46.756Z,14.80
2019-03-18T22:16:16.075Z,13.43
2019-03-18T22:18:45.033Z,15.40
2019-03-18T22:21:14.554Z,6.80
2019-03-18T22:23:43.790Z,7.30
2019-03-18T22:26:13.109Z,11.27
2019-03-18T22:28:41.949Z,13.03
2019-03-18T22:31:10.862Z,9.60
2019-03-18T22:33:39.860Z,7.10
2019-03-18T22:36:08.703Z,5.50
2019-03-18T22:38:37.533Z,4.90
2019-03-18T22:41:06.542Z,10.50
2019-03-18T22:43:35.374Z,5.87
2019-03-18T22:46:04.373Z,3.53
2019-03-18T22:48:33.805Z,2.83
2019-03-18T22:51:02.840Z,4.90
2019-03-18T22:53:31.750Z,4.50
2019-03-18T22:56:00.754Z,4.37
2019-03-18T22:58:29.686Z,2.47
2019-03-18T23:01:10.229Z,4.83
2019-03-18T23:03:39.154Z,3.70
2019-03-18T23:06:08.137Z,9.30
2019-03-18T23:08:37.057Z,2.80
2019-03-18T23:11:06.065Z,3.47
2019-03-18T23:13:34.982Z,7.60
2019-03-18T23:16:04.062Z,2.60
2019-03-18T23:18:32.895Z,2.70
2019-03-18T23:21:01.734Z,3.90
2019-03-18T23:23:30.946Z,1.57
2019-03-18T23:25:59.854Z,2.50
2019-03-18T23:28:28.781Z,3.23
2019-03-18T23:30:58.148Z,3.60
2019-03-18T23:33:27.077Z,3.33
2019-03-18T23:35:56.412Z,2.13
2019-03-18T23:38:25.305Z,5.50
2019-03-18T23:40:54.216Z,2.70
2019-03-18T23:43:23.200Z,4.20
2019-03-18T23:45:52.183Z,2.47
2019-03-18T23:48:21.017Z,3.20
2019-03-18T23:50:50.040Z,4.30
2019-03-18T23:53:19.046Z,2.30
2019-03-18T23:55:48.034Z,3.20
2019-03-18T23:58:16.955Z,3.47
